Clericy, Canada
Current Conditions -  °F | °C
As of 3:00 AM on Thursday 27 Nov 2014 (Local Time) from CYUY Reporting Station
Broken Clouds Broken Clouds  
Wind Chill:   Ceiling: 10000
Heat Index: 12°   Visibility: 15mi
Dew Point:   Wind: 5mph
Humidity: 85%   Direction: 60°ENE
Pressure: 30.13"   Gusts: NA
Location:  48.37°N, 78.87°W
Report Text: CYUY 270800Z 06004KT 15SM BKN100 M11/M13 A3013 RMK AC5 SLP227
Loading
Personal Weather Stations






























Interactive Weather Map New forecast layout! Learn more

10-Day Weather Forecast

Advertisements
Track Severe Weather on mobile